Time;durP1;ratioP1;P1;durP2;ratioP2;P2;SDS_P1;SDS_P2;PMS_P1;PMS_P2;Temp;Humidity;BMP_temperature;BMP_pressure;BME280_temperature;BME280_humidity;BME280_pressure;Samples;Min_cycle;Max_cycle;Signal;HPM_P1;HPM_P2
2022/11/25 00:01:05;;;;;;;89.80;26.75;;;;;;;;;;5041797;28;20056;-49
2022/11/25 00:03:33;;;;;;;72.40;23.50;;;;;;;;;;5039209;28;20072;-50
2022/11/25 00:06:07;;;;;;;73.93;24.38;;;;;;;;;;5044558;28;20107;-47
2022/11/25 00:08:33;;;;;;;93.30;25.15;;;;;;;;;;5045885;28;20453;-51
2022/11/25 00:11:01;;;;;;;78.38;20.92;;;;;;;;;;5038451;28;20177;-49
2022/11/25 00:13:34;;;;;;;72.88;23.65;;;;;;;;;;5045732;28;20052;-49
2022/11/25 00:16:02;;;;;;;86.00;23.20;;;;;;;;;;5032538;28;20053;-48
2022/11/25 00:18:29;;;;;;;83.13;23.88;;;;;;;;;;5033948;28;20060;-50
2022/11/25 00:20:57;;;;;;;73.88;23.60;;;;;;;;;;5038602;28;20068;-48
2022/11/25 00:23:25;;;;;;;86.50;25.58;;;;;;;;;;5033203;28;20461;-49
2022/11/25 00:25:53;;;;;;;80.03;24.48;;;;;;;;;;5032669;28;20072;-48
2022/11/25 00:28:21;;;;;;;99.82;28.15;;;;;;;;;;5036111;28;20136;-48
2022/11/25 00:30:50;;;;;;;100.00;25.95;;;;;;;;;;5039160;28;20065;-49
2022/11/25 00:33:17;;;;;;;94.47;27.02;;;;;;;;;;5039833;28;20045;-48
2022/11/25 00:35:44;;;;;;;90.38;26.83;;;;;;;;;;5042771;28;20492;-48
2022/11/25 00:38:13;;;;;;;103.00;30.58;;;;;;;;;;5040012;28;20053;-48
2022/11/25 00:40:40;;;;;;;91.35;26.75;;;;;;;;;;5044397;28;20056;-48
2022/11/25 00:45:54;;;;;;;99.18;27.15;;;;;;;;;;5050296;28;20056;-48
2022/11/25 00:48:21;;;;;;;99.32;27.75;;;;;;;;;;5035749;28;20053;-47
2022/11/25 00:50:49;;;;;;;103.25;30.00;;;;;;;;;;5032093;28;20061;-50
2022/11/25 00:53:16;;;;;;;104.85;29.13;;;;;;;;;;5040193;28;20091;-48
2022/11/25 00:58:41;;;;;;;100.80;27.80;;;;;;;;;;4982952;28;20184;-48
2022/11/25 01:01:17;;;;;;;104.75;28.27;;;;;;;;;;5029738;28;20075;-48
2022/11/25 01:03:45;;;;;;;100.13;28.17;;;;;;;;;;5051946;28;20072;-48
2022/11/25 01:06:12;;;;;;;106.35;27.63;;;;;;;;;;5042163;28;20374;-48
2022/11/25 01:08:40;;;;;;;97.22;27.10;;;;;;;;;;5036213;28;20068;-46
2022/11/25 01:11:08;;;;;;;99.90;26.52;;;;;;;;;;5036356;28;20053;-48
2022/11/25 01:13:38;;;;;;;85.40;25.85;;;;;;;;;;5043632;28;20063;-48
2022/11/25 01:16:05;;;;;;;101.05;26.35;;;;;;;;;;5043512;28;20054;-48
2022/11/25 01:18:34;;;;;;;86.68;25.00;;;;;;;;;;5036096;28;20057;-48
2022/11/25 01:21:06;;;;;;;96.05;25.92;;;;;;;;;;5047957;28;20059;-48
2022/11/25 01:23:33;;;;;;;88.18;24.77;;;;;;;;;;5035375;28;20125;-48
2022/11/25 01:26:02;;;;;;;102.38;25.52;;;;;;;;;;5048424;28;20053;-48
2022/11/25 01:28:29;;;;;;;90.78;24.80;;;;;;;;;;5045868;28;20102;-47
2022/11/25 01:31:00;;;;;;;84.95;26.70;;;;;;;;;;5041633;28;20075;-48
2022/11/25 01:33:31;;;;;;;87.78;24.48;;;;;;;;;;5044617;28;20053;-47
2022/11/25 01:36:02;;;;;;;89.47;25.63;;;;;;;;;;5046267;28;20096;-48
2022/11/25 01:38:30;;;;;;;78.05;25.63;;;;;;;;;;5040571;28;20100;-48
2022/11/25 01:40:58;;;;;;;87.03;25.80;;;;;;;;;;5044117;28;20057;-48
2022/11/25 01:43:25;;;;;;;96.30;25.23;;;;;;;;;;5050182;28;20075;-48
2022/11/25 01:45:51;;;;;;;103.65;25.23;;;;;;;;;;5052858;28;20064;-47
2022/11/25 01:48:21;;;;;;;87.45;25.40;;;;;;;;;;5051645;28;20378;-49
2022/11/25 01:50:49;;;;;;;84.05;25.58;;;;;;;;;;5045794;28;20078;-48
2022/11/25 01:53:19;;;;;;;81.32;24.25;;;;;;;;;;5038966;28;20053;-48
2022/11/25 01:55:48;;;;;;;85.32;23.30;;;;;;;;;;5038099;28;20056;-48
2022/11/25 01:58:19;;;;;;;84.13;24.08;;;;;;;;;;5052447;28;20060;-49
2022/11/25 02:00:50;;;;;;;81.20;23.02;;;;;;;;;;5050461;28;20054;-48
2022/11/25 02:03:20;;;;;;;92.75;24.13;;;;;;;;;;5047269;28;20061;-48
2022/11/25 02:05:50;;;;;;;77.97;20.00;;;;;;;;;;5048311;28;20045;-51
2022/11/25 02:08:20;;;;;;;77.03;24.40;;;;;;;;;;5034694;28;20433;-49
2022/11/25 02:10:48;;;;;;;81.63;21.70;;;;;;;;;;5035331;28;20347;-48
2022/11/25 02:13:15;;;;;;;71.72;21.70;;;;;;;;;;5049189;28;20049;-48
2022/11/25 02:15:43;;;;;;;78.00;22.65;;;;;;;;;;5046794;28;20060;-48
2022/11/25 02:18:13;;;;;;;64.50;19.42;;;;;;;;;;5034573;28;20068;-48
2022/11/25 02:20:41;;;;;;;62.80;19.48;;;;;;;;;;5044133;28;20150;-50
2022/11/25 02:23:13;;;;;;;69.25;20.15;;;;;;;;;;5038116;28;20060;-49
2022/11/25 02:25:46;;;;;;;66.38;18.42;;;;;;;;;;5035336;28;20077;-49
2022/11/25 02:28:15;;;;;;;73.00;20.83;;;;;;;;;;5047629;28;20067;-49
2022/11/25 02:30:42;;;;;;;64.28;18.52;;;;;;;;;;5035202;28;20057;-48
2022/11/25 02:33:10;;;;;;;71.40;20.60;;;;;;;;;;5034966;28;20094;-49
2022/11/25 02:35:38;;;;;;;71.82;19.20;;;;;;;;;;5047551;28;20055;-48
2022/11/25 02:38:07;;;;;;;72.43;21.65;;;;;;;;;;5042901;28;20068;-48
2022/11/25 02:40:36;;;;;;;69.65;20.95;;;;;;;;;;5039525;28;20075;-52
2022/11/25 02:43:05;;;;;;;72.07;21.15;;;;;;;;;;5048809;28;20048;-50
2022/11/25 02:45:37;;;;;;;64.32;18.95;;;;;;;;;;5049807;28;20064;-48
2022/11/25 02:48:05;;;;;;;70.35;21.38;;;;;;;;;;5040042;28;20058;-48
2022/11/25 02:50:32;;;;;;;62.45;20.23;;;;;;;;;;5041518;28;20359;-48
2022/11/25 02:53:00;;;;;;;67.97;19.73;;;;;;;;;;5047354;28;20055;-48
2022/11/25 02:55:27;;;;;;;78.88;22.50;;;;;;;;;;5040088;28;20060;-48
2022/11/25 02:57:55;;;;;;;79.40;21.52;;;;;;;;;;5038525;28;20402;-49
2022/11/25 03:00:24;;;;;;;72.32;22.77;;;;;;;;;;5052345;28;20057;-49
2022/11/25 03:02:53;;;;;;;78.72;22.08;;;;;;;;;;5033896;28;20053;-49
2022/11/25 03:05:20;;;;;;;96.55;23.27;;;;;;;;;;5033815;28;20150;-49
2022/11/25 03:07:47;;;;;;;87.85;25.65;;;;;;;;;;5033939;28;20064;-49
2022/11/25 03:10:14;;;;;;;96.20;24.73;;;;;;;;;;5033949;28;20045;-49
2022/11/25 03:12:42;;;;;;;87.68;22.92;;;;;;;;;;5044060;28;20064;-48
2022/11/25 03:15:09;;;;;;;83.35;22.90;;;;;;;;;;5036523;28;20045;-49
2022/11/25 03:17:39;;;;;;;85.75;25.33;;;;;;;;;;5044101;28;20053;-49
2022/11/25 03:20:08;;;;;;;81.10;22.75;;;;;;;;;;5048213;28;20049;-49
2022/11/25 03:22:35;;;;;;;88.25;24.00;;;;;;;;;;5045464;28;20048;-49
2022/11/25 03:25:04;;;;;;;83.65;23.42;;;;;;;;;;5033574;28;20455;-49
2022/11/25 03:27:33;;;;;;;86.82;23.90;;;;;;;;;;5036653;28;20084;-47
2022/11/25 03:30:00;;;;;;;82.35;22.67;;;;;;;;;;5032977;28;20072;-48
2022/11/25 03:32:28;;;;;;;88.10;23.55;;;;;;;;;;5033604;28;20049;-49
2022/11/25 03:35:03;;;;;;;92.35;21.42;;;;;;;;;;5053388;28;20052;-48
2022/11/25 03:37:31;;;;;;;98.88;25.20;;;;;;;;;;5045816;28;20080;-48
2022/11/25 03:39:58;;;;;;;87.95;22.90;;;;;;;;;;5050736;28;20445;-51
2022/11/25 03:42:26;;;;;;;80.93;22.25;;;;;;;;;;5047684;28;20049;-49
2022/11/25 03:44:53;;;;;;;88.88;23.10;;;;;;;;;;5038931;28;20042;-48
2022/11/25 03:47:22;;;;;;;70.95;18.77;;;;;;;;;;5047488;28;20140;-50
2022/11/25 03:49:49;;;;;;;77.80;21.63;;;;;;;;;;5033120;28;20057;-48
2022/11/25 03:52:18;;;;;;;84.93;24.98;;;;;;;;;;5033697;28;20057;-48
2022/11/25 03:54:46;;;;;;;84.38;23.73;;;;;;;;;;5049758;28;20036;-49
2022/11/25 03:57:13;;;;;;;84.22;21.50;;;;;;;;;;5039562;28;20064;-49
2022/11/25 03:59:41;;;;;;;72.53;24.08;;;;;;;;;;5047125;28;20080;-51
2022/11/25 04:02:08;;;;;;;85.13;24.20;;;;;;;;;;5052729;28;20055;-50
2022/11/25 04:04:36;;;;;;;81.25;22.52;;;;;;;;;;5052141;28;20041;-51
2022/11/25 04:07:02;;;;;;;75.13;22.33;;;;;;;;;;5043955;28;20114;-49
2022/11/25 04:09:34;;;;;;;80.25;22.63;;;;;;;;;;5040073;28;20045;-48
2022/11/25 04:14:46;;;;;;;77.82;21.65;;;;;;;;;;5032977;28;20103;-52
2022/11/25 04:17:14;;;;;;;99.22;24.77;;;;;;;;;;5045042;28;20060;-50
2022/11/25 04:19:41;;;;;;;86.43;23.33;;;;;;;;;;5038777;28;20057;-53
2022/11/25 04:22:09;;;;;;;85.40;23.23;;;;;;;;;;5045585;28;20048;-51
2022/11/25 04:24:38;;;;;;;81.60;23.23;;;;;;;;;;5044817;28;20458;-48
2022/11/25 04:27:05;;;;;;;76.03;23.83;;;;;;;;;;5043126;28;20056;-49
2022/11/25 04:29:32;;;;;;;87.88;23.30;;;;;;;;;;5044036;28;20057;-49
2022/11/25 04:31:59;;;;;;;84.40;22.80;;;;;;;;;;5039511;28;20053;-49
2022/11/25 04:34:27;;;;;;;90.10;25.33;;;;;;;;;;5044527;28;20064;-48
2022/11/25 04:36:54;;;;;;;97.00;22.98;;;;;;;;;;5044591;28;20067;-50
2022/11/25 04:39:22;;;;;;;96.53;23.45;;;;;;;;;;5052447;28;20107;-51
2022/11/25 04:42:30;;;;;;;89.65;24.90;;;;;;;;;;5051628;28;20052;-48
2022/11/25 04:44:38;;;;;;;87.68;23.05;;;;;;;;;;5048344;28;20055;-49
2022/11/25 04:47:08;;;;;;;108.53;25.70;;;;;;;;;;5045542;28;20057;-52
2022/11/25 04:49:36;;;;;;;92.60;25.98;;;;;;;;;;5032385;28;20064;-49
2022/11/25 04:52:04;;;;;;;104.25;23.48;;;;;;;;;;5032482;28;20060;-49
2022/11/25 04:54:32;;;;;;;84.47;23.20;;;;;;;;;;5038191;28;20402;-51
2022/11/25 04:57:01;;;;;;;79.20;23.88;;;;;;;;;;5037632;28;20069;-50
2022/11/25 04:59:41;;;;;;;84.78;23.25;;;;;;;;;;5039153;28;20064;-51
2022/11/25 05:02:12;;;;;;;94.22;24.77;;;;;;;;;;5032812;28;20042;-49
2022/11/25 05:04:40;;;;;;;84.50;23.83;;;;;;;;;;5032445;28;20063;-51
2022/11/25 05:07:08;;;;;;;83.25;23.50;;;;;;;;;;5041406;28;20048;-49
2022/11/25 05:09:36;;;;;;;81.60;20.63;;;;;;;;;;5049134;28;20367;-50
2022/11/25 05:12:08;;;;;;;68.53;19.27;;;;;;;;;;5033522;28;20049;-50
2022/11/25 05:14:35;;;;;;;68.10;20.90;;;;;;;;;;5032137;28;20142;-49
2022/11/25 05:17:04;;;;;;;79.30;23.83;;;;;;;;;;5031719;28;20742;-49
2022/11/25 05:19:32;;;;;;;95.32;25.15;;;;;;;;;;5032221;28;20053;-53
2022/11/25 05:21:59;;;;;;;113.40;24.65;;;;;;;;;;5032129;28;20053;-49
2022/11/25 05:24:27;;;;;;;94.80;24.50;;;;;;;;;;5031875;28;20053;-49
2022/11/25 05:26:54;;;;;;;83.55;22.15;;;;;;;;;;5035346;28;20049;-49
2022/11/25 05:29:23;;;;;;;87.30;23.48;;;;;;;;;;5035212;28;20049;-50
2022/11/25 05:31:51;;;;;;;88.78;22.80;;;;;;;;;;5031881;28;20056;-49
2022/11/25 05:34:17;;;;;;;88.45;23.40;;;;;;;;;;5031886;28;20045;-48
2022/11/25 05:36:44;;;;;;;92.40;22.70;;;;;;;;;;5037501;28;20481;-49
2022/11/25 05:39:10;;;;;;;74.47;21.08;;;;;;;;;;5033172;28;20052;-49
2022/11/25 05:41:36;;;;;;;81.80;23.40;;;;;;;;;;5031836;28;20053;-49
2022/11/25 05:44:04;;;;;;;68.35;21.70;;;;;;;;;;5040156;28;20068;-50
2022/11/25 05:46:32;;;;;;;72.03;22.48;;;;;;;;;;5045267;28;20110;-49
2022/11/25 05:48:58;;;;;;;75.45;22.10;;;;;;;;;;5030798;28;20064;-49
2022/11/25 05:51:24;;;;;;;70.07;22.35;;;;;;;;;;5030819;28;20057;-50
2022/11/25 05:53:51;;;;;;;67.80;21.05;;;;;;;;;;5039680;28;20049;-49
2022/11/25 05:56:17;;;;;;;61.03;18.52;;;;;;;;;;5040242;28;20065;-49
2022/11/25 05:58:43;;;;;;;59.53;18.52;;;;;;;;;;5042576;28;20068;-49
2022/11/25 06:01:11;;;;;;;59.50;19.27;;;;;;;;;;5034621;28;20056;-49
2022/11/25 06:03:38;;;;;;;60.00;18.73;;;;;;;;;;5035145;28;20060;-49
2022/11/25 06:06:06;;;;;;;60.97;20.65;;;;;;;;;;5034971;28;20045;-49
2022/11/25 06:08:32;;;;;;;54.95;17.95;;;;;;;;;;5044008;28;20052;-49
2022/11/25 06:10:59;;;;;;;52.60;15.95;;;;;;;;;;5052101;28;20052;-49
2022/11/25 06:13:25;;;;;;;46.67;16.70;;;;;;;;;;5038213;28;20049;-49
2022/11/25 06:15:51;;;;;;;50.88;16.73;;;;;;;;;;5047983;28;20060;-49
2022/11/25 06:18:18;;;;;;;51.40;15.50;;;;;;;;;;5035209;28;20070;-49
2022/11/25 06:20:46;;;;;;;38.38;14.00;;;;;;;;;;5034604;28;20076;-48
2022/11/25 06:23:12;;;;;;;50.85;15.43;;;;;;;;;;5042841;28;20060;-50
2022/11/25 06:25:38;;;;;;;53.45;16.75;;;;;;;;;;5039111;28;20061;-48
2022/11/25 06:28:04;;;;;;;66.97;19.23;;;;;;;;;;5040510;28;20046;-48
2022/11/25 06:30:31;;;;;;;72.97;20.70;;;;;;;;;;5034631;28;20064;-49
2022/11/25 06:32:57;;;;;;;74.85;20.58;;;;;;;;;;5034190;28;20394;-50
2022/11/25 06:35:23;;;;;;;64.38;20.73;;;;;;;;;;5044875;28;20053;-49
2022/11/25 06:37:51;;;;;;;92.07;23.13;;;;;;;;;;5034264;28;20041;-49
2022/11/25 06:40:17;;;;;;;64.45;20.55;;;;;;;;;;5033848;28;20448;-49
2022/11/25 06:42:44;;;;;;;63.45;19.55;;;;;;;;;;5040903;28;20049;-49
2022/11/25 06:45:10;;;;;;;73.65;20.63;;;;;;;;;;5048050;28;20387;-49
2022/11/25 06:47:36;;;;;;;63.60;19.38;;;;;;;;;;5045199;28;20110;-53
2022/11/25 06:50:03;;;;;;;63.40;19.13;;;;;;;;;;5046446;28;20053;-52
2022/11/25 06:52:30;;;;;;;63.17;17.83;;;;;;;;;;5033934;28;20454;-48
2022/11/25 06:54:57;;;;;;;65.22;18.23;;;;;;;;;;5044892;28;20053;-52
2022/11/25 06:57:24;;;;;;;67.30;18.20;;;;;;;;;;5039055;28;20065;-49
2022/11/25 06:59:50;;;;;;;64.03;18.65;;;;;;;;;;5049907;28;20053;-49
2022/11/25 07:02:16;;;;;;;65.05;19.77;;;;;;;;;;5034192;28;20183;-49
2022/11/25 07:04:43;;;;;;;65.70;18.77;;;;;;;;;;5032819;28;20052;-49
2022/11/25 07:07:09;;;;;;;70.85;21.77;;;;;;;;;;5034526;28;20135;-49
2022/11/25 07:09:36;;;;;;;74.63;21.75;;;;;;;;;;5034024;28;20053;-52
2022/11/25 07:12:04;;;;;;;59.45;19.27;;;;;;;;;;5036458;28;20046;-51
2022/11/25 07:14:31;;;;;;;70.93;20.60;;;;;;;;;;5033481;28;20451;-49
2022/11/25 07:16:57;;;;;;;60.92;19.40;;;;;;;;;;5033966;28;20124;-49
2022/11/25 07:19:23;;;;;;;80.32;22.30;;;;;;;;;;5033202;28;20059;-48
2022/11/25 07:21:49;;;;;;;67.95;21.27;;;;;;;;;;5045907;28;20061;-49
2022/11/25 07:24:17;;;;;;;69.63;24.08;;;;;;;;;;5047255;28;20049;-48
2022/11/25 07:26:44;;;;;;;76.47;24.35;;;;;;;;;;5050373;28;20060;-49
2022/11/25 07:29:13;;;;;;;72.38;22.05;;;;;;;;;;5047038;28;20131;-49
2022/11/25 07:31:40;;;;;;;89.20;26.27;;;;;;;;;;5047675;28;20049;-49
2022/11/25 07:34:08;;;;;;;82.50;24.00;;;;;;;;;;5029609;28;20068;-49
2022/11/25 07:36:34;;;;;;;73.97;22.50;;;;;;;;;;5037428;28;20049;-49
2022/11/25 07:39:02;;;;;;;90.05;26.50;;;;;;;;;;5034441;28;20490;-47
2022/11/25 07:41:28;;;;;;;77.05;25.30;;;;;;;;;;5038373;28;20055;-48
2022/11/25 07:43:56;;;;;;;82.75;23.38;;;;;;;;;;5041406;28;20049;-47
2022/11/25 07:46:24;;;;;;;74.80;20.52;;;;;;;;;;5043357;28;20037;-47
2022/11/25 07:48:51;;;;;;;73.75;21.33;;;;;;;;;;5039497;28;20045;-48
2022/11/25 07:51:19;;;;;;;61.13;19.75;;;;;;;;;;5037741;28;20137;-48
2022/11/25 07:53:45;;;;;;;63.88;18.45;;;;;;;;;;5041117;28;20048;-49
2022/11/25 07:56:12;;;;;;;63.08;20.38;;;;;;;;;;5048461;28;20059;-50
2022/11/25 07:58:38;;;;;;;61.25;18.17;;;;;;;;;;5035820;28;20049;-50
2022/11/25 08:01:06;;;;;;;63.40;18.55;;;;;;;;;;5033057;28;20053;-52
2022/11/25 08:03:33;;;;;;;58.78;19.77;;;;;;;;;;5044502;28;20394;-47
2022/11/25 08:06:00;;;;;;;53.20;18.70;;;;;;;;;;5041971;28;20346;-48
2022/11/25 08:08:27;;;;;;;53.40;16.60;;;;;;;;;;5034015;28;20068;-49
2022/11/25 08:10:53;;;;;;;54.67;16.58;;;;;;;;;;5045222;28;20052;-48
2022/11/25 08:13:19;;;;;;;58.63;17.42;;;;;;;;;;5040261;28;20050;-49
2022/11/25 08:15:45;;;;;;;55.83;19.48;;;;;;;;;;5048883;28;20056;-49
2022/11/25 08:18:12;;;;;;;65.93;18.10;;;;;;;;;;5032780;28;20132;-49
2022/11/25 08:20:39;;;;;;;57.28;17.15;;;;;;;;;;5040520;28;20057;-48
2022/11/25 08:23:05;;;;;;;53.88;16.83;;;;;;;;;;5044410;28;20072;-50
2022/11/25 08:25:32;;;;;;;54.67;18.80;;;;;;;;;;5042885;28;20053;-49
2022/11/25 08:27:58;;;;;;;61.53;19.10;;;;;;;;;;5049921;28;20060;-49
2022/11/25 08:30:25;;;;;;;52.38;17.30;;;;;;;;;;5045828;28;20470;-49
2022/11/25 08:32:52;;;;;;;59.83;18.20;;;;;;;;;;5042313;28;20049;-49
2022/11/25 08:35:18;;;;;;;53.95;16.17;;;;;;;;;;5034025;28;20099;-52
2022/11/25 08:37:46;;;;;;;55.80;17.45;;;;;;;;;;5047393;28;20044;-49
2022/11/25 08:40:12;;;;;;;59.42;18.40;;;;;;;;;;5041763;28;20060;-49
2022/11/25 08:42:39;;;;;;;56.20;16.35;;;;;;;;;;5044702;28;20048;-48
2022/11/25 08:45:05;;;;;;;53.65;16.95;;;;;;;;;;5048855;28;20064;-51
2022/11/25 08:47:32;;;;;;;53.03;17.00;;;;;;;;;;5051728;28;20053;-48
2022/11/25 08:49:58;;;;;;;51.53;16.48;;;;;;;;;;5041167;28;20064;-52
2022/11/25 08:52:25;;;;;;;49.47;17.13;;;;;;;;;;5043602;28;20061;-49
2022/11/25 08:54:53;;;;;;;41.80;15.65;;;;;;;;;;5042587;28;20056;-50
2022/11/25 08:57:19;;;;;;;53.03;17.38;;;;;;;;;;5048423;28;20133;-49
2022/11/25 08:59:45;;;;;;;45.40;17.15;;;;;;;;;;5037326;28;20054;-49
2022/11/25 09:02:14;;;;;;;49.08;16.67;;;;;;;;;;5049891;28;20056;-49
2022/11/25 09:04:40;;;;;;;49.20;16.02;;;;;;;;;;5048039;28;20049;-48
2022/11/25 09:07:06;;;;;;;45.53;15.02;;;;;;;;;;5036468;28;20049;-52
2022/11/25 09:09:33;;;;;;;44.30;15.20;;;;;;;;;;5039183;28;20053;-53
2022/11/25 09:12:00;;;;;;;42.75;13.93;;;;;;;;;;5051163;28;20041;-50
2022/11/25 09:14:27;;;;;;;41.20;13.57;;;;;;;;;;5038767;28;20053;-50
2022/11/25 09:16:55;;;;;;;36.85;11.98;;;;;;;;;;5044632;28;20056;-49
2022/11/25 09:19:21;;;;;;;32.88;13.23;;;;;;;;;;5049146;28;20102;-49
2022/11/25 09:21:48;;;;;;;31.88;11.30;;;;;;;;;;5046033;28;20063;-50
2022/11/25 09:24:14;;;;;;;30.25;10.02;;;;;;;;;;5047840;28;20053;-49
2022/11/25 09:26:41;;;;;;;33.75;11.65;;;;;;;;;;5040176;28;20069;-50
2022/11/25 09:29:10;;;;;;;35.30;11.65;;;;;;;;;;5042060;28;20088;-50
2022/11/25 09:31:36;;;;;;;26.35;10.15;;;;;;;;;;5051095;28;20140;-50
2022/11/25 09:34:02;;;;;;;22.30;7.70;;;;;;;;;;5043692;28;20053;-49
2022/11/25 09:36:29;;;;;;;21.55;8.60;;;;;;;;;;5039414;28;20060;-49
2022/11/25 09:38:55;;;;;;;21.70;8.80;;;;;;;;;;5051402;28;20723;-48
2022/11/25 09:47:19;;;;;;;23.08;9.32;;;;;;;;;;5044852;28;20191;-51
2022/11/25 09:49:52;;;;;;;22.92;9.15;;;;;;;;;;5042382;28;20056;-54
2022/11/25 09:52:23;;;;;;;18.63;8.18;;;;;;;;;;5035954;28;20049;-53
2022/11/25 09:54:53;;;;;;;24.95;9.05;;;;;;;;;;5045004;28;20049;-54
2022/11/25 09:57:23;;;;;;;22.48;7.90;;;;;;;;;;5043690;28;20048;-53
2022/11/25 09:59:54;;;;;;;18.95;7.97;;;;;;;;;;5038892;28;20049;-50
2022/11/25 10:02:24;;;;;;;20.08;8.20;;;;;;;;;;5044486;28;20056;-53
2022/11/25 10:04:52;;;;;;;20.60;7.75;;;;;;;;;;5042523;28;20049;-48
2022/11/25 10:07:21;;;;;;;19.20;6.82;;;;;;;;;;5042536;28;20068;-48
2022/11/25 10:09:48;;;;;;;21.35;8.75;;;;;;;;;;5041363;28;20052;-49
2022/11/25 10:12:19;;;;;;;24.42;9.63;;;;;;;;;;5049598;28;20374;-49
2022/11/25 10:14:47;;;;;;;24.83;9.05;;;;;;;;;;5042943;28;20069;-48
2022/11/25 10:17:18;;;;;;;19.73;7.88;;;;;;;;;;5043940;28;20359;-48
2022/11/25 10:19:50;;;;;;;17.77;8.05;;;;;;;;;;5049559;28;20049;-48
2022/11/25 10:22:21;;;;;;;18.67;7.90;;;;;;;;;;5047250;28;20060;-50
2022/11/25 10:24:47;;;;;;;19.10;7.15;;;;;;;;;;5047248;28;20394;-50
2022/11/25 10:27:18;;;;;;;24.70;9.10;;;;;;;;;;5045609;28;20394;-53
2022/11/25 10:29:46;;;;;;;23.88;8.18;;;;;;;;;;5038342;28;20052;-53
2022/11/25 10:32:20;;;;;;;28.35;9.07;;;;;;;;;;5042793;28;20053;-54
2022/11/25 10:34:48;;;;;;;27.85;9.52;;;;;;;;;;5039439;28;20060;-52
2022/11/25 10:37:19;;;;;;;32.97;10.43;;;;;;;;;;5045196;28;20045;-49
2022/11/25 10:39:45;;;;;;;26.92;10.75;;;;;;;;;;5040710;28;20052;-49
2022/11/25 10:42:16;;;;;;;28.52;10.38;;;;;;;;;;5036542;28;20049;-49
2022/11/25 10:44:42;;;;;;;31.35;12.60;;;;;;;;;;5045816;28;20106;-49
2022/11/25 10:47:38;;;;;;;29.08;11.93;;;;;;;;;;5047016;28;20042;-49
2022/11/25 10:50:14;;;;;;;34.38;12.25;;;;;;;;;;4987490;28;20484;-51
2022/11/25 10:52:42;;;;;;;25.08;10.13;;;;;;;;;;5027519;28;20060;-51
2022/11/25 10:55:10;;;;;;;31.10;12.07;;;;;;;;;;5038978;28;20057;-47
2022/11/25 10:57:36;;;;;;;33.20;12.00;;;;;;;;;;5036240;28;20077;-50
2022/11/25 11:00:04;;;;;;;33.42;12.55;;;;;;;;;;5040046;28;20136;-49
2022/11/25 11:02:31;;;;;;;31.10;12.25;;;;;;;;;;5040830;28;20056;-50
2022/11/25 11:04:59;;;;;;;31.77;12.82;;;;;;;;;;5046072;28;20056;-49
2022/11/25 11:07:27;;;;;;;32.88;13.70;;;;;;;;;;5046464;28;20059;-51
2022/11/25 11:09:53;;;;;;;40.25;13.30;;;;;;;;;;5050437;28;20063;-52
2022/11/25 11:12:21;;;;;;;35.85;13.02;;;;;;;;;;5048680;28;20462;-52
2022/11/25 11:14:47;;;;;;;34.70;13.52;;;;;;;;;;5050358;28;20044;-52
2022/11/25 11:17:28;;;;;;;36.35;14.45;;;;;;;;;;5046983;28;20140;-49
2022/11/25 11:20:01;;;;;;;30.85;12.18;;;;;;;;;;5045135;28;20054;-50
2022/11/25 11:22:29;;;;;;;31.75;11.55;;;;;;;;;;5047657;28;20044;-47
2022/11/25 11:25:05;;;;;;;31.92;13.13;;;;;;;;;;5046811;28;20128;-46
2022/11/25 11:27:35;;;;;;;29.95;12.00;;;;;;;;;;5040056;28;20461;-46
2022/11/25 11:30:07;;;;;;;35.58;13.40;;;;;;;;;;5048309;28;20041;-46
2022/11/25 11:32:34;;;;;;;32.25;12.05;;;;;;;;;;5052247;28;20068;-44
2022/11/25 11:35:03;;;;;;;27.33;11.75;;;;;;;;;;5051386;28;20473;-44
2022/11/25 11:37:35;;;;;;;30.83;11.10;;;;;;;;;;5047143;28;20049;-46
2022/11/25 11:40:24;;;;;;;29.17;12.02;;;;;;;;;;5050593;28;20446;-45
2022/11/25 11:42:57;;;;;;;26.15;10.48;;;;;;;;;;5039788;28;20081;-46
2022/11/25 11:45:30;;;;;;;27.08;10.70;;;;;;;;;;5047718;28;20045;-52
2022/11/25 11:48:01;;;;;;;32.88;12.68;;;;;;;;;;5046685;28;20127;-51
2022/11/25 11:50:30;;;;;;;29.48;11.38;;;;;;;;;;5042168;28;20056;-46
2022/11/25 11:53:01;;;;;;;28.88;11.77;;;;;;;;;;5041764;28;20049;-49
2022/11/25 11:55:34;;;;;;;36.38;13.20;;;;;;;;;;5048676;28;20053;-50
2022/11/25 11:58:04;;;;;;;34.88;13.10;;;;;;;;;;5041843;28;20066;-48
2022/11/25 12:00:32;;;;;;;30.10;12.13;;;;;;;;;;5044388;28;20049;-48
2022/11/25 12:03:00;;;;;;;36.63;12.85;;;;;;;;;;5043327;28;20040;-50
2022/11/25 12:05:28;;;;;;;31.38;12.68;;;;;;;;;;5051204;28;20374;-49
2022/11/25 12:07:59;;;;;;;31.10;12.93;;;;;;;;;;5051981;28;20142;-49
2022/11/25 12:10:28;;;;;;;27.85;11.43;;;;;;;;;;5044511;28;20059;-47
2022/11/25 12:12:58;;;;;;;32.83;12.90;;;;;;;;;;5038067;28;20048;-51
2022/11/25 12:15:33;;;;;;;37.08;12.10;;;;;;;;;;5046428;28;20056;-50
2022/11/25 12:18:02;;;;;;;32.25;12.60;;;;;;;;;;5046824;28;20045;-53
2022/11/25 12:20:34;;;;;;;32.30;12.15;;;;;;;;;;5044537;28;20044;-48
2022/11/25 12:23:05;;;;;;;26.52;11.95;;;;;;;;;;5051531;28;20041;-49
2022/11/25 12:25:35;;;;;;;30.80;11.07;;;;;;;;;;5040153;28;20042;-49
2022/11/25 12:28:04;;;;;;;27.08;10.60;;;;;;;;;;5052017;28;20048;-53
2022/11/25 12:30:34;;;;;;;27.17;10.65;;;;;;;;;;5043455;28;20060;-49
2022/11/25 12:33:06;;;;;;;30.95;12.20;;;;;;;;;;5045948;28;20126;-49
2022/11/25 12:35:45;;;;;;;29.23;12.18;;;;;;;;;;5051800;28;20041;-49
2022/11/25 12:38:17;;;;;;;36.92;12.98;;;;;;;;;;5048438;28;20143;-48
2022/11/25 12:40:47;;;;;;;29.08;10.88;;;;;;;;;;5043947;28;20054;-49
2022/11/25 12:43:20;;;;;;;28.38;12.48;;;;;;;;;;5042081;28;20050;-49
2022/11/25 12:45:51;;;;;;;27.20;12.30;;;;;;;;;;5048359;28;20060;-48
2022/11/25 12:48:17;;;;;;;24.98;10.90;;;;;;;;;;5045199;28;20041;-48
2022/11/25 12:50:49;;;;;;;34.25;14.65;;;;;;;;;;5042885;28;20056;-49
2022/11/25 12:53:17;;;;;;;37.67;14.60;;;;;;;;;;5039611;28;20075;-48
2022/11/25 12:55:43;;;;;;;36.97;13.23;;;;;;;;;;5046019;28;20045;-46
2022/11/25 12:58:19;;;;;;;31.10;13.57;;;;;;;;;;5041617;28;20064;-52
2022/11/25 13:01:02;;;;;;;25.80;11.80;;;;;;;;;;5036709;28;20492;-51
2022/11/25 13:03:39;;;;;;;29.52;12.88;;;;;;;;;;5052177;28;20049;-48
2022/11/25 13:06:16;;;;;;;30.92;11.93;;;;;;;;;;5046452;28;20128;-49
2022/11/25 13:08:54;;;;;;;25.98;11.27;;;;;;;;;;5038214;28;20073;-46
2022/11/25 13:11:33;;;;;;;32.85;13.07;;;;;;;;;;5047901;28;20052;-55
2022/11/25 13:14:04;;;;;;;29.98;12.25;;;;;;;;;;5042547;28;20045;-56
2022/11/25 13:16:31;;;;;;;34.22;12.07;;;;;;;;;;5039139;28;20502;-50
2022/11/25 13:18:57;;;;;;;31.00;12.23;;;;;;;;;;5047977;28;20473;-51
2022/11/25 13:21:26;;;;;;;30.70;12.93;;;;;;;;;;5047952;28;20059;-52
2022/11/25 13:23:55;;;;;;;30.85;13.45;;;;;;;;;;5053759;28;20053;-51
2022/11/25 13:26:48;;;;;;;33.45;12.43;;;;;;;;;;5054473;28;20057;-51
2022/11/25 13:29:29;;;;;;;40.40;14.07;;;;;;;;;;5050860;28;20155;-53
2022/11/25 13:31:58;;;;;;;28.02;12.63;;;;;;;;;;5038920;28;20053;-52
2022/11/25 13:34:26;;;;;;;34.75;13.95;;;;;;;;;;5045117;28;20466;-51
2022/11/25 13:36:53;;;;;;;33.50;13.68;;;;;;;;;;5049772;28;20033;-56
2022/11/25 13:39:28;;;;;;;36.30;14.10;;;;;;;;;;5050355;28;20075;-50
2022/11/25 13:41:59;;;;;;;32.20;12.38;;;;;;;;;;5042507;28;20091;-50
2022/11/25 13:44:29;;;;;;;31.33;13.20;;;;;;;;;;5048580;28;20075;-50
2022/11/25 13:46:58;;;;;;;28.60;11.90;;;;;;;;;;5050282;28;20048;-52
2022/11/25 13:49:29;;;;;;;38.88;14.13;;;;;;;;;;5043552;28;20050;-49
2022/11/25 13:51:57;;;;;;;35.33;13.13;;;;;;;;;;5045741;28;20092;-50
2022/11/25 13:54:25;;;;;;;35.08;12.32;;;;;;;;;;5047479;28;20063;-51
2022/11/25 13:57:06;;;;;;;40.28;14.07;;;;;;;;;;5048254;28;20041;-49
2022/11/25 13:59:36;;;;;;;34.47;13.60;;;;;;;;;;5035594;28;20057;-48
2022/11/25 14:02:21;;;;;;;30.88;13.75;;;;;;;;;;5045494;28;20053;-50
2022/11/25 14:04:52;;;;;;;31.95;12.75;;;;;;;;;;5044653;28;20049;-50
2022/11/25 14:07:25;;;;;;;35.08;13.90;;;;;;;;;;5050538;28;20063;-50
2022/11/25 14:10:00;;;;;;;31.27;12.57;;;;;;;;;;5044399;28;20049;-50
2022/11/25 14:12:38;;;;;;;36.40;14.50;;;;;;;;;;5048886;28;20060;-50
2022/11/25 14:15:24;;;;;;;35.47;14.50;;;;;;;;;;5039542;28;20068;-51
2022/11/25 14:18:08;;;;;;;38.63;14.38;;;;;;;;;;5039406;28;20045;-51
2022/11/25 14:20:39;;;;;;;53.40;15.38;;;;;;;;;;5038724;28;20052;-51
2022/11/25 14:23:18;;;;;;;38.45;14.43;;;;;;;;;;5043994;28;20081;-51
2022/11/25 14:25:47;;;;;;;36.35;14.02;;;;;;;;;;5053198;28;20056;-50
2022/11/25 14:28:20;;;;;;;41.92;14.10;;;;;;;;;;5053319;28;20041;-51
2022/11/25 14:30:49;;;;;;;36.50;14.30;;;;;;;;;;5043624;28;20049;-51
2022/11/25 14:33:17;;;;;;;44.22;16.63;;;;;;;;;;5053248;28;20076;-51
2022/11/25 14:35:47;;;;;;;32.95;13.93;;;;;;;;;;5052318;28;20049;-51
2022/11/25 14:38:16;;;;;;;38.95;14.93;;;;;;;;;;5051965;28;20045;-50
2022/11/25 14:40:44;;;;;;;35.65;15.07;;;;;;;;;;5051107;28;20053;-50